createdAt,value
2019-03-24T00:00:02.334Z,52.00
2019-03-24T00:02:30.841Z,52.00
2019-03-24T00:04:59.501Z,51.90
2019-03-24T00:07:27.913Z,52.30
2019-03-24T00:09:56.348Z,52.60
2019-03-24T00:12:24.761Z,53.00
2019-03-24T00:14:53.181Z,53.40
2019-03-24T00:17:21.599Z,54.00
2019-03-24T00:19:50.037Z,54.10
2019-03-24T00:22:18.446Z,54.20
2019-03-24T00:24:46.863Z,54.30
2019-03-24T00:27:15.363Z,54.20
2019-03-24T00:29:43.788Z,53.70
2019-03-24T00:32:13.853Z,53.20
2019-03-24T00:34:42.311Z,52.70
2019-03-24T00:37:10.717Z,52.30
2019-03-24T00:39:39.141Z,51.60
2019-03-24T00:42:07.665Z,51.20
2019-03-24T00:44:36.174Z,51.00
2019-03-24T00:47:04.669Z,51.30
2019-03-24T00:49:33.109Z,51.60
2019-03-24T00:52:01.544Z,52.00
2019-03-24T00:54:29.994Z,52.70
2019-03-24T00:57:01.119Z,52.40
2019-03-24T00:59:29.542Z,52.70
2019-03-24T01:01:57.978Z,52.70
2019-03-24T01:04:26.462Z,52.70
2019-03-24T01:06:55.367Z,52.60
2019-03-24T01:09:23.786Z,52.50
2019-03-24T01:11:52.207Z,52.60
2019-03-24T01:14:20.626Z,53.00
2019-03-24T01:16:49.036Z,53.50
2019-03-24T01:19:17.458Z,53.80
2019-03-24T01:21:45.929Z,54.20
2019-03-24T01:24:14.378Z,54.50
2019-03-24T01:26:42.789Z,54.70
2019-03-24T01:29:11.243Z,55.00
2019-03-24T01:31:39.718Z,55.30
2019-03-24T01:34:08.165Z,55.80
2019-03-24T01:36:36.585Z,55.90
2019-03-24T01:39:06.950Z,55.70
2019-03-24T01:41:35.714Z,55.60
2019-03-24T01:44:04.233Z,55.60
2019-03-24T01:46:32.655Z,55.80
2019-03-24T01:49:01.098Z,56.20
2019-03-24T01:51:29.559Z,56.70
2019-03-24T01:53:58.143Z,57.50
2019-03-24T01:56:26.899Z,58.00
2019-03-24T01:58:55.470Z,57.50
2019-03-24T02:01:24.199Z,57.60
2019-03-24T02:03:52.589Z,57.80
2019-03-24T02:06:21.063Z,58.00
2019-03-24T02:08:49.493Z,57.80
2019-03-24T02:11:17.898Z,57.90
2019-03-24T02:13:46.305Z,58.10
2019-03-24T02:16:14.765Z,58.10
2019-03-24T02:18:43.207Z,58.50
2019-03-24T02:21:11.641Z,58.20
2019-03-24T02:23:40.055Z,57.70
2019-03-24T02:26:08.483Z,57.90
2019-03-24T02:28:36.909Z,57.90
2019-03-24T02:31:05.406Z,57.40
2019-03-24T02:33:33.822Z,57.60
2019-03-24T02:36:02.230Z,57.80
2019-03-24T02:38:30.628Z,57.80
2019-03-24T02:40:59.063Z,57.80
2019-03-24T02:43:27.762Z,57.80
2019-03-24T02:45:56.236Z,57.80
2019-03-24T02:48:24.634Z,57.30
2019-03-24T02:50:53.041Z,57.00
2019-03-24T02:53:21.481Z,56.80
2019-03-24T02:55:49.975Z,57.80
2019-03-24T02:58:18.525Z,57.80
2019-03-24T03:00:46.938Z,57.80
2019-03-24T03:03:15.342Z,57.70
2019-03-24T03:05:43.802Z,57.20
2019-03-24T03:08:12.203Z,56.60
2019-03-24T03:10:40.624Z,56.70
2019-03-24T03:13:09.027Z,56.10
2019-03-24T03:15:37.454Z,55.60
2019-03-24T03:18:06.434Z,54.60
2019-03-24T03:20:34.911Z,54.80
2019-03-24T03:23:03.364Z,55.60
2019-03-24T03:25:31.825Z,55.60
2019-03-24T03:28:00.238Z,56.20
2019-03-24T03:30:28.681Z,56.00
2019-03-24T03:32:57.167Z,56.80
2019-03-24T03:35:25.613Z,57.10
2019-03-24T03:37:54.029Z,57.50
2019-03-24T03:40:22.430Z,57.50
2019-03-24T03:42:50.898Z,57.90
2019-03-24T03:45:27.289Z,58.00
2019-03-24T03:47:56.386Z,58.20
2019-03-24T03:50:24.792Z,58.40
2019-03-24T03:52:53.206Z,58.90
2019-03-24T03:55:21.627Z,59.10
2019-03-24T03:57:50.052Z,59.60
2019-03-24T04:00:21.645Z,59.70
2019-03-24T04:02:50.178Z,59.50
2019-03-24T04:05:18.624Z,59.30
2019-03-24T04:07:47.069Z,58.70
2019-03-24T04:10:15.501Z,58.20
2019-03-24T04:12:43.944Z,58.40
2019-03-24T04:15:12.418Z,58.10
2019-03-24T04:17:40.875Z,58.50
2019-03-24T04:20:09.472Z,58.70
2019-03-24T04:22:37.890Z,58.80
2019-03-24T04:25:07.049Z,58.40
2019-03-24T04:27:35.518Z,58.30
2019-03-24T04:30:04.962Z,58.70
2019-03-24T04:32:33.394Z,58.80
2019-03-24T04:35:01.851Z,59.10
2019-03-24T04:37:32.967Z,59.10
2019-03-24T04:40:00.454Z,58.70
2019-03-24T04:42:28.861Z,59.10
2019-03-24T04:44:57.291Z,59.70
2019-03-24T04:47:25.794Z,59.80
2019-03-24T04:49:54.234Z,60.00
2019-03-24T04:52:22.721Z,60.60
2019-03-24T04:54:51.137Z,61.00
2019-03-24T04:57:19.545Z,61.10
2019-03-24T04:59:47.957Z,61.10
2019-03-24T05:02:16.365Z,61.00
2019-03-24T05:04:45.116Z,60.70
2019-03-24T05:07:14.027Z,60.40
2019-03-24T05:09:43.064Z,60.30
2019-03-24T05:12:11.509Z,60.60
2019-03-24T05:14:39.962Z,60.80
2019-03-24T05:17:08.381Z,60.90
2019-03-24T05:19:36.842Z,61.00
2019-03-24T05:22:05.256Z,61.00
2019-03-24T05:24:33.664Z,61.30
2019-03-24T05:27:02.189Z,62.00
2019-03-24T05:29:30.954Z,62.20
2019-03-24T05:31:59.372Z,62.30
2019-03-24T05:34:27.795Z,62.00
2019-03-24T05:36:56.202Z,62.10
2019-03-24T05:39:24.623Z,61.40
2019-03-24T05:41:53.012Z,61.00
2019-03-24T05:44:21.833Z,61.00
2019-03-24T05:46:50.742Z,60.40
2019-03-24T05:49:19.162Z,60.10
2019-03-24T05:51:47.549Z,60.40
2019-03-24T05:54:16.294Z,60.50
2019-03-24T05:56:44.681Z,60.70
2019-03-24T05:59:13.189Z,60.60
2019-03-24T06:01:41.602Z,61.10
2019-03-24T06:04:10.097Z,61.70
2019-03-24T06:06:38.503Z,61.30
2019-03-24T06:09:06.913Z,61.60
2019-03-24T06:11:35.342Z,60.90
2019-03-24T06:14:03.790Z,61.30
2019-03-24T06:16:32.242Z,61.20
2019-03-24T06:19:00.668Z,61.00
2019-03-24T06:21:29.071Z,61.00
2019-03-24T06:23:57.488Z,60.60
2019-03-24T06:26:25.905Z,60.10
2019-03-24T06:28:54.328Z,59.80
2019-03-24T06:31:22.723Z,59.60
2019-03-24T06:33:51.169Z,59.50
2019-03-24T06:36:19.588Z,60.10
2019-03-24T06:38:48.002Z,59.30
2019-03-24T06:41:16.471Z,58.80
2019-03-24T06:43:44.938Z,58.10
2019-03-24T06:46:15.040Z,57.60
2019-03-24T06:48:43.554Z,56.60
2019-03-24T06:51:12.285Z,56.00
2019-03-24T06:53:40.697Z,55.40
2019-03-24T06:56:09.120Z,54.80
2019-03-24T06:58:37.537Z,53.50
2019-03-24T07:01:06.343Z,52.80
2019-03-24T07:03:34.747Z,52.40
2019-03-24T07:06:03.202Z,51.20
2019-03-24T07:08:32.390Z,50.40
2019-03-24T07:11:00.820Z,50.20
2019-03-24T07:13:29.245Z,49.30
2019-03-24T07:15:57.662Z,48.30
2019-03-24T07:18:26.094Z,47.40
2019-03-24T07:20:54.532Z,45.50
2019-03-24T07:23:22.971Z,43.20
2019-03-24T07:25:51.633Z,42.80
2019-03-24T07:28:20.069Z,42.30
2019-03-24T07:30:48.485Z,41.30
2019-03-24T07:33:17.804Z,41.50
2019-03-24T07:35:46.299Z,40.60
2019-03-24T07:38:14.717Z,39.80
2019-03-24T07:40:43.153Z,39.60
2019-03-24T07:43:11.564Z,38.40
2019-03-24T07:45:39.989Z,38.20
2019-03-24T07:48:18.447Z,36.90
2019-03-24T07:50:38.589Z,36.20
2019-03-24T07:53:07.042Z,36.30
2019-03-24T07:55:35.456Z,35.50
2019-03-24T07:58:03.938Z,34.90
2019-03-24T08:00:36.955Z,34.20
2019-03-24T08:03:05.832Z,33.10
2019-03-24T08:05:34.269Z,33.50
2019-03-24T08:08:02.723Z,33.30
2019-03-24T08:10:31.164Z,33.40
2019-03-24T08:12:59.602Z,33.10
2019-03-24T08:15:28.040Z,32.30
2019-03-24T08:17:56.451Z,32.70
2019-03-24T08:20:24.885Z,33.00
2019-03-24T08:22:53.661Z,31.90
2019-03-24T08:25:22.115Z,31.60
2019-03-24T08:27:50.614Z,31.20
2019-03-24T08:30:30.955Z,30.60
2019-03-24T08:32:59.417Z,30.20
2019-03-24T08:35:27.833Z,30.30
2019-03-24T08:37:56.289Z,30.30
2019-03-24T08:40:24.737Z,30.60
2019-03-24T08:42:53.218Z,29.80
2019-03-24T08:45:29.627Z,29.80
2019-03-24T08:47:58.902Z,29.50
2019-03-24T08:50:27.466Z,29.80
2019-03-24T08:52:56.069Z,29.10
2019-03-24T08:55:24.566Z,28.70
2019-03-24T08:57:53.014Z,28.30
2019-03-24T09:00:30.102Z,28.20
2019-03-24T09:02:51.601Z,28.10
2019-03-24T09:05:20.030Z,28.40
2019-03-24T09:07:48.475Z,27.80
2019-03-24T09:10:17.121Z,28.20
2019-03-24T09:12:45.572Z,27.80
2019-03-24T09:15:14.341Z,27.60
2019-03-24T09:17:42.813Z,27.60
2019-03-24T09:20:11.603Z,27.60
2019-03-24T09:22:40.038Z,27.50
2019-03-24T09:25:09.026Z,27.50
2019-03-24T09:27:37.465Z,27.90
2019-03-24T09:30:08.369Z,27.60
2019-03-24T09:32:36.807Z,28.00
2019-03-24T09:35:06.185Z,27.90
2019-03-24T09:37:34.618Z,27.20
2019-03-24T09:40:03.120Z,27.40
2019-03-24T09:42:31.544Z,26.70
2019-03-24T09:44:59.965Z,26.40
2019-03-24T09:47:28.431Z,26.10
2019-03-24T09:49:56.852Z,25.70
2019-03-24T09:52:25.282Z,26.10
2019-03-24T09:54:53.725Z,26.00
2019-03-24T09:57:22.159Z,25.60
2019-03-24T09:59:50.590Z,25.50
2019-03-24T10:02:19.079Z,25.20
2019-03-24T10:04:48.662Z,25.50
2019-03-24T10:07:17.113Z,25.20
2019-03-24T10:09:45.553Z,25.20
2019-03-24T10:12:13.986Z,25.10
2019-03-24T10:14:42.895Z,25.40
2019-03-24T10:17:11.318Z,25.60
2019-03-24T10:19:40.039Z,25.90
2019-03-24T10:22:08.519Z,26.30
2019-03-24T10:24:36.965Z,26.30
2019-03-24T10:27:05.433Z,25.60
2019-03-24T10:29:33.904Z,25.40
2019-03-24T10:32:02.314Z,25.50
2019-03-24T10:34:30.746Z,25.20
2019-03-24T10:36:59.145Z,24.70
2019-03-24T10:39:27.610Z,24.50
2019-03-24T10:41:56.038Z,24.30
2019-03-24T10:44:24.485Z,24.20
2019-03-24T10:46:52.894Z,24.30
2019-03-24T10:49:25.183Z,24.30
2019-03-24T10:51:51.927Z,23.90
2019-03-24T10:54:20.358Z,24.30
2019-03-24T10:56:48.783Z,24.20
2019-03-24T10:59:17.216Z,24.10
2019-03-24T11:01:45.682Z,24.50
2019-03-24T11:04:15.896Z,25.10
2019-03-24T11:06:44.326Z,25.20
2019-03-24T11:09:12.762Z,25.00
2019-03-24T11:11:41.184Z,25.40
2019-03-24T11:14:09.660Z,25.20
2019-03-24T11:16:38.317Z,25.20
2019-03-24T11:19:06.738Z,25.50
2019-03-24T11:21:35.165Z,25.60
2019-03-24T11:24:03.613Z,25.50
2019-03-24T11:26:32.032Z,25.80
2019-03-24T11:29:00.454Z,26.10
2019-03-24T11:31:28.892Z,26.20
2019-03-24T11:33:57.313Z,25.40
2019-03-24T11:36:25.770Z,25.70
2019-03-24T11:38:54.251Z,25.90
2019-03-24T11:41:22.675Z,25.90
2019-03-24T11:43:54.617Z,26.10
2019-03-24T11:46:23.026Z,25.60
2019-03-24T11:48:51.763Z,25.20
2019-03-24T11:51:20.234Z,25.20
2019-03-24T11:53:48.703Z,25.50
2019-03-24T11:56:17.109Z,25.20
2019-03-24T11:58:45.622Z,25.30
2019-03-24T12:01:14.186Z,25.00
2019-03-24T12:03:42.962Z,24.50
2019-03-24T12:06:14.730Z,24.60
2019-03-24T12:08:41.626Z,24.40
2019-03-24T12:11:10.055Z,23.90
2019-03-24T12:13:38.497Z,24.60
2019-03-24T12:16:06.915Z,24.40
2019-03-24T12:18:35.353Z,24.50
2019-03-24T12:21:03.882Z,24.60
2019-03-24T12:23:32.440Z,23.40
2019-03-24T12:26:01.137Z,23.70
2019-03-24T12:28:29.596Z,24.10
2019-03-24T12:30:58.052Z,24.00
2019-03-24T12:33:27.189Z,23.30
2019-03-24T12:35:55.631Z,23.70
2019-03-24T12:38:24.066Z,23.80
2019-03-24T12:40:52.493Z,23.30
2019-03-24T12:43:21.013Z,22.80
2019-03-24T12:45:49.474Z,22.90
2019-03-24T12:48:17.941Z,22.20
2019-03-24T12:50:46.410Z,22.00
2019-03-24T12:53:14.883Z,22.00
2019-03-24T12:55:43.392Z,22.10
2019-03-24T12:58:11.801Z,23.10
2019-03-24T13:00:40.265Z,23.00
2019-03-24T13:03:09.228Z,22.30
2019-03-24T13:05:37.796Z,22.60
2019-03-24T13:08:14.500Z,22.80
2019-03-24T13:10:43.771Z,22.50
2019-03-24T13:13:12.560Z,23.10
2019-03-24T13:15:41.372Z,23.30
2019-03-24T13:18:09.776Z,23.00
2019-03-24T13:20:38.817Z,23.00
2019-03-24T13:23:07.529Z,22.70
2019-03-24T13:25:36.443Z,22.80
2019-03-24T13:28:05.029Z,22.90
2019-03-24T13:30:33.490Z,22.50
2019-03-24T13:33:02.077Z,22.40
2019-03-24T13:35:30.526Z,22.60
2019-03-24T13:37:58.941Z,22.60
2019-03-24T13:40:27.384Z,21.60
2019-03-24T13:42:55.819Z,21.70
2019-03-24T13:45:24.265Z,21.60
2019-03-24T13:47:52.695Z,21.10
2019-03-24T13:50:30.990Z,20.90
2019-03-24T13:52:51.285Z,20.70
2019-03-24T13:55:19.776Z,20.80
2019-03-24T13:57:48.202Z,20.90
2019-03-24T14:00:17.864Z,20.70
2019-03-24T14:02:46.275Z,20.90
2019-03-24T14:05:14.749Z,20.70
2019-03-24T14:07:43.209Z,20.60
2019-03-24T14:10:12.604Z,20.80
2019-03-24T14:12:42.013Z,20.90
2019-03-24T14:15:10.701Z,20.90
2019-03-24T14:17:39.179Z,21.00
2019-03-24T14:20:08.654Z,21.00
2019-03-24T14:22:37.081Z,20.70
2019-03-24T14:25:08.517Z,20.00
2019-03-24T14:27:37.012Z,19.90
2019-03-24T14:30:07.967Z,20.30
2019-03-24T14:32:36.385Z,20.60
2019-03-24T14:35:06.236Z,20.60
2019-03-24T14:37:34.686Z,20.70
2019-03-24T14:40:04.420Z,20.90
2019-03-24T14:42:32.845Z,21.00
2019-03-24T14:45:01.299Z,21.00
2019-03-24T14:47:29.719Z,21.20
2019-03-24T14:49:58.142Z,21.10
2019-03-24T14:52:26.626Z,21.10
2019-03-24T14:54:55.029Z,21.20
2019-03-24T14:57:23.555Z,20.80
2019-03-24T14:59:52.246Z,21.80
2019-03-24T15:02:20.685Z,20.00
2019-03-24T15:04:49.122Z,20.40
2019-03-24T15:07:17.586Z,20.90
2019-03-24T15:09:46.103Z,21.20
2019-03-24T15:12:14.566Z,21.00
2019-03-24T15:14:42.973Z,21.60
2019-03-24T15:17:11.438Z,21.50
2019-03-24T15:19:39.853Z,21.70
2019-03-24T15:22:08.330Z,21.70
2019-03-24T15:24:36.798Z,21.70
2019-03-24T15:27:05.450Z,21.60
2019-03-24T15:29:33.865Z,21.80
2019-03-24T15:32:02.404Z,21.80
2019-03-24T15:34:31.147Z,22.10
2019-03-24T15:36:59.573Z,22.40
2019-03-24T15:39:28.059Z,22.50
2019-03-24T15:41:56.514Z,22.50
2019-03-24T15:44:25.054Z,22.70
2019-03-24T15:47:12.821Z,23.10
2019-03-24T15:49:41.284Z,23.50
2019-03-24T15:52:10.051Z,23.70
2019-03-24T15:54:38.489Z,24.00
2019-03-24T15:57:06.909Z,25.30
2019-03-24T15:59:35.327Z,26.50
2019-03-24T16:02:03.817Z,27.60
2019-03-24T16:04:32.289Z,28.10
2019-03-24T16:07:00.697Z,28.50
2019-03-24T16:09:29.258Z,29.00
2019-03-24T16:11:57.684Z,29.30
2019-03-24T16:14:26.125Z,29.30
2019-03-24T16:16:54.535Z,29.30
2019-03-24T16:19:22.969Z,29.30
2019-03-24T16:21:51.389Z,29.10
2019-03-24T16:24:19.834Z,29.10
2019-03-24T16:26:48.252Z,29.40
2019-03-24T16:29:16.681Z,29.80
2019-03-24T16:31:45.109Z,30.60
2019-03-24T16:34:13.600Z,30.60
2019-03-24T16:36:42.031Z,30.60
2019-03-24T16:39:10.559Z,30.60
2019-03-24T16:41:39.017Z,30.90
2019-03-24T16:44:07.522Z,31.60
2019-03-24T16:46:36.005Z,32.50
2019-03-24T16:49:04.540Z,33.70
2019-03-24T16:51:38.467Z,34.30
2019-03-24T16:54:03.208Z,35.10
2019-03-24T16:56:31.671Z,36.20
2019-03-24T16:59:00.088Z,37.20
2019-03-24T17:01:28.539Z,38.10
2019-03-24T17:03:56.974Z,39.00
2019-03-24T17:06:25.384Z,39.70
2019-03-24T17:08:53.825Z,40.40
2019-03-24T17:11:22.238Z,41.10
2019-03-24T17:13:50.737Z,41.50
2019-03-24T17:16:19.218Z,41.70
2019-03-24T17:18:47.686Z,42.10
2019-03-24T17:21:16.175Z,42.60
2019-03-24T17:23:44.637Z,43.10
2019-03-24T17:26:13.049Z,43.50
2019-03-24T17:28:41.783Z,43.80
2019-03-24T17:31:10.197Z,43.90
2019-03-24T17:33:38.646Z,44.60
2019-03-24T17:36:07.241Z,44.60
2019-03-24T17:38:35.665Z,44.90
2019-03-24T17:41:04.081Z,45.30
2019-03-24T17:43:32.501Z,45.70
2019-03-24T17:46:00.951Z,46.00
2019-03-24T17:48:29.361Z,45.90
2019-03-24T17:50:57.813Z,45.60
2019-03-24T17:53:26.218Z,46.20
2019-03-24T17:55:54.662Z,45.90
2019-03-24T17:58:23.088Z,45.50
2019-03-24T18:00:53.194Z,45.70
2019-03-24T18:03:21.624Z,45.10
2019-03-24T18:05:50.106Z,45.40
2019-03-24T18:08:18.604Z,45.50
2019-03-24T18:10:47.102Z,45.90
2019-03-24T18:13:15.518Z,45.90
2019-03-24T18:15:43.962Z,45.60
2019-03-24T18:18:12.379Z,45.50
2019-03-24T18:20:40.809Z,45.40
2019-03-24T18:23:09.245Z,44.90
2019-03-24T18:25:37.677Z,44.80
2019-03-24T18:28:06.181Z,44.80
2019-03-24T18:30:34.796Z,45.00
2019-03-24T18:33:03.269Z,45.00
2019-03-24T18:35:31.725Z,45.40
2019-03-24T18:38:00.178Z,45.50
2019-03-24T18:40:28.698Z,46.10
2019-03-24T18:42:57.249Z,46.30
2019-03-24T18:45:25.728Z,46.40
2019-03-24T18:47:54.204Z,46.50
2019-03-24T18:50:22.664Z,46.50
2019-03-24T18:52:51.144Z,46.60
2019-03-24T18:55:19.596Z,46.80
2019-03-24T18:57:48.013Z,47.10
2019-03-24T19:00:16.969Z,47.30
2019-03-24T19:02:45.405Z,47.60
2019-03-24T19:05:15.235Z,47.50
2019-03-24T19:07:43.666Z,48.00
2019-03-24T19:10:14.386Z,48.50
2019-03-24T19:12:42.994Z,48.40
2019-03-24T19:15:14.199Z,48.40
2019-03-24T19:17:42.654Z,48.70
2019-03-24T19:20:12.011Z,48.10
2019-03-24T19:22:40.802Z,47.40
2019-03-24T19:25:09.867Z,47.30
2019-03-24T19:27:38.370Z,47.50
2019-03-24T19:30:12.283Z,47.50
2019-03-24T19:32:40.736Z,47.50
2019-03-24T19:35:09.325Z,47.70
2019-03-24T19:37:37.901Z,48.20
2019-03-24T19:40:09.391Z,48.40
2019-03-24T19:42:37.869Z,48.30
2019-03-24T19:45:06.428Z,48.40
2019-03-24T19:47:35.156Z,48.50
2019-03-24T19:50:05.152Z,48.90
2019-03-24T19:52:44.102Z,48.90
2019-03-24T19:55:06.406Z,49.00
2019-03-24T19:57:34.826Z,49.30
2019-03-24T20:00:03.760Z,49.70
2019-03-24T20:02:32.243Z,49.80
2019-03-24T20:05:00.662Z,50.20
2019-03-24T20:07:29.102Z,51.00
2019-03-24T20:09:57.498Z,50.60
2019-03-24T20:12:25.934Z,50.60
2019-03-24T20:14:54.371Z,50.70
2019-03-24T20:17:22.901Z,50.70
2019-03-24T20:19:51.335Z,51.10
2019-03-24T20:22:19.775Z,51.10
2019-03-24T20:24:48.243Z,51.00
2019-03-24T20:27:16.698Z,51.40
2019-03-24T20:29:45.150Z,51.40
2019-03-24T20:32:13.573Z,51.30
2019-03-24T20:34:42.342Z,51.40
2019-03-24T20:37:13.431Z,51.40
2019-03-24T20:39:42.734Z,51.30
2019-03-24T20:42:11.204Z,51.40
2019-03-24T20:44:39.686Z,51.20
2019-03-24T20:47:08.129Z,51.30
2019-03-24T20:49:36.661Z,51.40
2019-03-24T20:52:05.181Z,51.30
2019-03-24T20:54:33.625Z,51.40
2019-03-24T20:57:02.106Z,52.00
2019-03-24T20:59:30.532Z,51.40
2019-03-24T21:01:58.994Z,51.10
2019-03-24T21:04:27.435Z,51.20
2019-03-24T21:06:55.952Z,50.90
2019-03-24T21:09:24.477Z,50.90
2019-03-24T21:11:52.942Z,51.00
2019-03-24T21:14:21.729Z,51.30
2019-03-24T21:16:50.177Z,51.50
2019-03-24T21:19:18.710Z,51.50
2019-03-24T21:21:47.162Z,51.40
2019-03-24T21:24:15.569Z,51.50
2019-03-24T21:26:43.997Z,51.90
2019-03-24T21:29:12.479Z,52.20
2019-03-24T21:31:40.889Z,52.40
2019-03-24T21:34:09.324Z,52.20
2019-03-24T21:36:37.762Z,52.30
2019-03-24T21:39:07.890Z,52.40
2019-03-24T21:41:36.419Z,52.70
2019-03-24T21:44:05.176Z,52.80
2019-03-24T21:46:33.592Z,52.80
2019-03-24T21:49:02.061Z,52.60
2019-03-24T21:51:30.595Z,52.90
2019-03-24T21:53:59.065Z,53.70
2019-03-24T21:56:27.499Z,54.00
2019-03-24T21:58:55.989Z,54.70
2019-03-24T22:01:24.401Z,55.00
2019-03-24T22:03:53.241Z,55.30
2019-03-24T22:06:21.645Z,55.10
2019-03-24T22:08:50.109Z,54.90
2019-03-24T22:11:18.794Z,54.70
2019-03-24T22:13:47.638Z,54.70
2019-03-24T22:16:16.213Z,54.20
2019-03-24T22:18:44.685Z,54.10
2019-03-24T22:21:13.102Z,54.20
2019-03-24T22:23:51.853Z,54.30
2019-03-24T22:26:12.698Z,54.20
2019-03-24T22:28:41.105Z,54.00
2019-03-24T22:31:09.550Z,54.10
2019-03-24T22:33:37.971Z,54.50
2019-03-24T22:36:06.789Z,54.50
2019-03-24T22:38:35.199Z,54.70
2019-03-24T22:41:03.685Z,55.10
2019-03-24T22:43:32.096Z,55.00
2019-03-24T22:46:00.569Z,54.90
2019-03-24T22:48:29.031Z,55.40
2019-03-24T22:50:57.470Z,55.20
2019-03-24T22:53:25.880Z,55.00
2019-03-24T22:55:54.390Z,55.10
2019-03-24T22:58:22.817Z,54.80
2019-03-24T23:00:54.262Z,54.90
2019-03-24T23:03:25.132Z,54.60
2019-03-24T23:05:53.356Z,54.50
2019-03-24T23:08:22.171Z,54.20
2019-03-24T23:10:50.685Z,53.90
2019-03-24T23:13:19.177Z,53.80
2019-03-24T23:15:47.615Z,53.90
2019-03-24T23:18:24.821Z,53.70
2019-03-24T23:20:53.253Z,53.60
2019-03-24T23:23:21.692Z,53.60
2019-03-24T23:25:50.209Z,53.40
2019-03-24T23:28:18.624Z,53.50
2019-03-24T23:30:47.168Z,53.30
2019-03-24T23:33:15.646Z,53.00
2019-03-24T23:35:44.106Z,52.70
2019-03-24T23:38:12.567Z,52.60
2019-03-24T23:40:41.009Z,52.50
2019-03-24T23:43:09.725Z,52.50
2019-03-24T23:45:38.177Z,52.50
2019-03-24T23:48:06.594Z,52.40
2019-03-24T23:50:35.114Z,52.50
2019-03-24T23:53:03.990Z,52.90
2019-03-24T23:55:32.535Z,53.20
2019-03-24T23:58:00.977Z,53.20
